Search for airport 
image banner adimage banner ad
image banner ad

SVDX - Caicaguana

Located in El Hatillo, Venezuela

ICAO - SVDX, IATA -

Data provided by Airmate  

General information

Coordinates: N10°42'26" W66°54'49"
Elevation is 268 feet MSL.
 
Rated:
View ratings: [VIEW]


View others Airports in Delta Amacuro

Operational data

Open for public use
Current time UTC:
Current local time:
METAR: SVMI 070002Z AUTO 07007KT NCD ///// Q1013
TAF: TAF SVMI 062200Z 0700/0800 06009KT 9999 SCT016 TX32/0618Z TN24/0608Z BECMG 0700/0704 09005KT 8000 RA BKN016
View NOTAMs / SUP AIP / TFR affecting this airport [VIEW]
Communications frequencies: [VIEW]

Runways:

Airport contact information

Address: El Hatillo Venezuela

Satellite view of SVDX